Terminal Aerodrome Forecast
Issued by NWS

Home | Current Version | Previous Version | Text Only | Print | Product List | Glossary On
Versions: 1 2 3 4 5 6 7 8 9 10 11 12 13 14 15 16 17 18 19 20 21 22 23 24
000
FTUS42 KRAH 260226 AAA
TAFRWI
TAF AMD
KRWI 260226Z 2602/2624 03007KT P6SM BKN050
     FM260300 03008KT P6SM BKN025
     FM260500 02009KT P6SM BKN010
     FM261600 01013G21KT P6SM BKN020=

USA.gov is the U.S. government's official web portal to all federal, state and local government web resources and services.